sensor_id;sensor_type;location;lat;lon;timestamp;P1;durP1;ratioP1;P2;durP2;ratioP2
13443;SDS011;6794;59.218;18.218;2023-04-03T00:02:18;3.43;;;1.10;;
13443;SDS011;6794;59.218;18.218;2023-04-03T00:04:44;5.53;;;1.33;;
13443;SDS011;6794;59.218;18.218;2023-04-03T00:07:10;7.67;;;1.67;;
13443;SDS011;6794;59.218;18.218;2023-04-03T00:09:37;5.97;;;1.50;;
13443;SDS011;6794;59.218;18.218;2023-04-03T00:12:03;2.63;;;1.20;;
13443;SDS011;6794;59.218;18.218;2023-04-03T00:14:29;3.20;;;1.00;;
13443;SDS011;6794;59.218;18.218;2023-04-03T00:16:55;8.53;;;1.40;;
13443;SDS011;6794;59.218;18.218;2023-04-03T00:19:21;3.27;;;1.20;;
13443;SDS011;6794;59.218;18.218;2023-04-03T00:21:47;3.63;;;1.30;;
13443;SDS011;6794;59.218;18.218;2023-04-03T00:24:13;7.03;;;1.75;;
13443;SDS011;6794;59.218;18.218;2023-04-03T00:26:39;4.83;;;1.37;;
13443;SDS011;6794;59.218;18.218;2023-04-03T00:29:05;4.03;;;1.30;;
13443;SDS011;6794;59.218;18.218;2023-04-03T00:31:31;5.50;;;1.10;;
13443;SDS011;6794;59.218;18.218;2023-04-03T00:33:58;7.20;;;1.50;;
13443;SDS011;6794;59.218;18.218;2023-04-03T00:36:24;6.60;;;1.40;;
13443;SDS011;6794;59.218;18.218;2023-04-03T00:38:50;5.70;;;1.43;;
13443;SDS011;6794;59.218;18.218;2023-04-03T00:41:16;2.23;;;1.17;;
13443;SDS011;6794;59.218;18.218;2023-04-03T00:43:42;3.73;;;1.30;;
13443;SDS011;6794;59.218;18.218;2023-04-03T00:46:08;1.90;;;1.10;;
13443;SDS011;6794;59.218;18.218;2023-04-03T00:48:36;6.40;;;1.27;;
13443;SDS011;6794;59.218;18.218;2023-04-03T00:51:04;2.73;;;1.40;;
13443;SDS011;6794;59.218;18.218;2023-04-03T00:53:33;4.47;;;1.30;;
13443;SDS011;6794;59.218;18.218;2023-04-03T00:56:01;5.80;;;1.23;;
13443;SDS011;6794;59.218;18.218;2023-04-03T00:58:32;8.20;;;2.00;;
13443;SDS011;6794;59.218;18.218;2023-04-03T01:00:59;4.07;;;1.13;;
13443;SDS011;6794;59.218;18.218;2023-04-03T01:03:28;5.33;;;1.10;;
13443;SDS011;6794;59.218;18.218;2023-04-03T01:05:56;4.80;;;1.40;;
13443;SDS011;6794;59.218;18.218;2023-04-03T01:08:22;5.77;;;1.20;;
13443;SDS011;6794;59.218;18.218;2023-04-03T01:10:49;1.80;;;1.20;;
13443;SDS011;6794;59.218;18.218;2023-04-03T01:13:28;8.03;;;1.20;;
13443;SDS011;6794;59.218;18.218;2023-04-03T01:15:54;4.20;;;1.27;;
13443;SDS011;6794;59.218;18.218;2023-04-03T01:18:21;6.23;;;1.80;;
13443;SDS011;6794;59.218;18.218;2023-04-03T01:20:50;5.27;;;1.20;;
13443;SDS011;6794;59.218;18.218;2023-04-03T01:25:52;4.07;;;1.73;;
13443;SDS011;6794;59.218;18.218;2023-04-03T01:28:23;3.97;;;1.40;;
13443;SDS011;6794;59.218;18.218;2023-04-03T01:33:15;5.28;;;1.52;;
13443;SDS011;6794;59.218;18.218;2023-04-03T01:35:41;6.13;;;1.40;;
13443;SDS011;6794;59.218;18.218;2023-04-03T01:38:07;5.43;;;1.20;;
13443;SDS011;6794;59.218;18.218;2023-04-03T01:40:33;3.57;;;1.33;;
13443;SDS011;6794;59.218;18.218;2023-04-03T01:42:59;5.57;;;1.30;;
13443;SDS011;6794;59.218;18.218;2023-04-03T01:45:25;5.00;;;1.40;;
13443;SDS011;6794;59.218;18.218;2023-04-03T01:47:51;3.83;;;1.10;;
13443;SDS011;6794;59.218;18.218;2023-04-03T01:50:17;2.83;;;1.20;;
13443;SDS011;6794;59.218;18.218;2023-04-03T01:52:43;2.20;;;1.20;;
13443;SDS011;6794;59.218;18.218;2023-04-03T01:55:09;6.57;;;1.67;;
13443;SDS011;6794;59.218;18.218;2023-04-03T01:57:35;5.23;;;1.43;;
13443;SDS011;6794;59.218;18.218;2023-04-03T02:00:01;9.87;;;1.40;;
13443;SDS011;6794;59.218;18.218;2023-04-03T02:02:27;3.83;;;1.30;;
13443;SDS011;6794;59.218;18.218;2023-04-03T02:04:53;3.60;;;1.37;;
13443;SDS011;6794;59.218;18.218;2023-04-03T02:07:19;8.05;;;1.73;;
13443;SDS011;6794;59.218;18.218;2023-04-03T02:09:46;5.27;;;1.30;;
13443;SDS011;6794;59.218;18.218;2023-04-03T02:12:12;7.55;;;1.58;;
13443;SDS011;6794;59.218;18.218;2023-04-03T02:14:38;3.87;;;1.20;;
13443;SDS011;6794;59.218;18.218;2023-04-03T02:17:04;2.47;;;1.50;;
13443;SDS011;6794;59.218;18.218;2023-04-03T02:19:33;2.33;;;1.23;;
13443;SDS011;6794;59.218;18.218;2023-04-03T02:22:00;4.70;;;1.40;;
13443;SDS011;6794;59.218;18.218;2023-04-03T02:24:26;8.10;;;1.57;;
13443;SDS011;6794;59.218;18.218;2023-04-03T02:26:52;8.00;;;2.00;;
13443;SDS011;6794;59.218;18.218;2023-04-03T02:29:18;5.43;;;1.73;;
13443;SDS011;6794;59.218;18.218;2023-04-03T02:31:44;6.53;;;1.70;;
13443;SDS011;6794;59.218;18.218;2023-04-03T02:34:11;6.10;;;1.20;;
13443;SDS011;6794;59.218;18.218;2023-04-03T02:36:37;4.07;;;1.40;;
13443;SDS011;6794;59.218;18.218;2023-04-03T02:39:03;4.27;;;1.10;;
13443;SDS011;6794;59.218;18.218;2023-04-03T02:41:29;3.53;;;1.52;;
13443;SDS011;6794;59.218;18.218;2023-04-03T02:44:00;4.60;;;1.30;;
13443;SDS011;6794;59.218;18.218;2023-04-03T02:46:26;5.53;;;1.30;;
13443;SDS011;6794;59.218;18.218;2023-04-03T02:48:52;4.03;;;1.30;;
13443;SDS011;6794;59.218;18.218;2023-04-03T02:51:18;5.47;;;1.73;;
13443;SDS011;6794;59.218;18.218;2023-04-03T02:53:45;5.90;;;1.60;;
13443;SDS011;6794;59.218;18.218;2023-04-03T02:56:11;2.80;;;1.30;;
13443;SDS011;6794;59.218;18.218;2023-04-03T02:58:37;4.53;;;1.40;;
13443;SDS011;6794;59.218;18.218;2023-04-03T03:01:03;3.90;;;1.13;;
13443;SDS011;6794;59.218;18.218;2023-04-03T03:03:29;4.93;;;1.50;;
13443;SDS011;6794;59.218;18.218;2023-04-03T03:06:05;3.90;;;1.67;;
13443;SDS011;6794;59.218;18.218;2023-04-03T03:08:31;3.30;;;1.33;;
13443;SDS011;6794;59.218;18.218;2023-04-03T03:10:57;4.40;;;1.30;;
13443;SDS011;6794;59.218;18.218;2023-04-03T03:13:24;5.43;;;1.48;;
13443;SDS011;6794;59.218;18.218;2023-04-03T03:15:50;6.80;;;1.95;;
13443;SDS011;6794;59.218;18.218;2023-04-03T03:18:16;3.17;;;1.13;;
13443;SDS011;6794;59.218;18.218;2023-04-03T03:20:42;9.27;;;1.50;;
13443;SDS011;6794;59.218;18.218;2023-04-03T03:23:08;3.73;;;1.03;;
13443;SDS011;6794;59.218;18.218;2023-04-03T03:25:38;3.58;;;1.33;;
13443;SDS011;6794;59.218;18.218;2023-04-03T03:28:05;7.68;;;1.35;;
13443;SDS011;6794;59.218;18.218;2023-04-03T03:30:31;8.60;;;1.77;;
13443;SDS011;6794;59.218;18.218;2023-04-03T03:32:57;4.32;;;1.60;;
13443;SDS011;6794;59.218;18.218;2023-04-03T03:35:23;3.53;;;1.40;;
13443;SDS011;6794;59.218;18.218;2023-04-03T03:37:49;5.53;;;1.73;;
13443;SDS011;6794;59.218;18.218;2023-04-03T03:40:15;7.28;;;1.25;;
13443;SDS011;6794;59.218;18.218;2023-04-03T03:42:41;7.80;;;1.80;;
13443;SDS011;6794;59.218;18.218;2023-04-03T03:45:07;4.37;;;1.83;;
13443;SDS011;6794;59.218;18.218;2023-04-03T03:47:33;3.60;;;1.45;;
13443;SDS011;6794;59.218;18.218;2023-04-03T03:50:00;8.90;;;2.00;;
13443;SDS011;6794;59.218;18.218;2023-04-03T03:52:26;3.63;;;1.40;;
13443;SDS011;6794;59.218;18.218;2023-04-03T03:54:52;6.33;;;1.57;;
13443;SDS011;6794;59.218;18.218;2023-04-03T03:57:18;6.70;;;1.40;;
13443;SDS011;6794;59.218;18.218;2023-04-03T03:59:44;5.85;;;1.42;;
13443;SDS011;6794;59.218;18.218;2023-04-03T04:02:12;5.87;;;1.80;;
13443;SDS011;6794;59.218;18.218;2023-04-03T04:04:38;8.30;;;1.80;;
13443;SDS011;6794;59.218;18.218;2023-04-03T04:07:04;3.17;;;1.30;;
13443;SDS011;6794;59.218;18.218;2023-04-03T04:09:30;6.53;;;1.50;;
13443;SDS011;6794;59.218;18.218;2023-04-03T04:11:56;6.50;;;1.50;;
13443;SDS011;6794;59.218;18.218;2023-04-03T04:14:22;3.05;;;1.85;;
13443;SDS011;6794;59.218;18.218;2023-04-03T04:16:48;4.85;;;1.60;;
13443;SDS011;6794;59.218;18.218;2023-04-03T04:19:15;10.48;;;1.50;;
13443;SDS011;6794;59.218;18.218;2023-04-03T04:21:41;6.38;;;1.90;;
13443;SDS011;6794;59.218;18.218;2023-04-03T04:24:07;9.18;;;1.83;;
13443;SDS011;6794;59.218;18.218;2023-04-03T04:26:33;4.25;;;2.10;;
13443;SDS011;6794;59.218;18.218;2023-04-03T04:28:59;5.63;;;1.70;;
13443;SDS011;6794;59.218;18.218;2023-04-03T04:31:25;5.45;;;1.75;;
13443;SDS011;6794;59.218;18.218;2023-04-03T04:33:52;3.97;;;1.63;;
13443;SDS011;6794;59.218;18.218;2023-04-03T04:36:18;5.30;;;1.73;;
13443;SDS011;6794;59.218;18.218;2023-04-03T04:38:44;4.25;;;2.00;;
13443;SDS011;6794;59.218;18.218;2023-04-03T04:41:10;5.63;;;1.80;;
13443;SDS011;6794;59.218;18.218;2023-04-03T04:43:36;8.27;;;2.13;;
13443;SDS011;6794;59.218;18.218;2023-04-03T04:48:28;6.90;;;1.67;;
13443;SDS011;6794;59.218;18.218;2023-04-03T04:50:55;6.67;;;2.00;;
13443;SDS011;6794;59.218;18.218;2023-04-03T04:53:21;4.80;;;1.80;;
13443;SDS011;6794;59.218;18.218;2023-04-03T04:55:47;4.63;;;1.73;;
13443;SDS011;6794;59.218;18.218;2023-04-03T04:58:13;11.52;;;2.80;;
13443;SDS011;6794;59.218;18.218;2023-04-03T05:00:39;3.10;;;1.20;;
13443;SDS011;6794;59.218;18.218;2023-04-03T05:03:05;8.53;;;2.00;;
13443;SDS011;6794;59.218;18.218;2023-04-03T05:05:31;7.03;;;1.67;;
13443;SDS011;6794;59.218;18.218;2023-04-03T05:07:57;4.33;;;1.33;;
13443;SDS011;6794;59.218;18.218;2023-04-03T05:10:23;7.70;;;1.67;;
13443;SDS011;6794;59.218;18.218;2023-04-03T05:12:50;8.03;;;1.83;;
13443;SDS011;6794;59.218;18.218;2023-04-03T05:15:16;8.00;;;1.73;;
13443;SDS011;6794;59.218;18.218;2023-04-03T05:17:42;7.03;;;1.58;;
13443;SDS011;6794;59.218;18.218;2023-04-03T05:20:08;2.43;;;1.27;;
13443;SDS011;6794;59.218;18.218;2023-04-03T05:22:34;6.90;;;1.80;;
13443;SDS011;6794;59.218;18.218;2023-04-03T05:25:00;5.03;;;1.97;;
13443;SDS011;6794;59.218;18.218;2023-04-03T05:27:26;10.73;;;2.17;;
13443;SDS011;6794;59.218;18.218;2023-04-03T05:29:53;8.37;;;1.70;;
13443;SDS011;6794;59.218;18.218;2023-04-03T05:32:20;8.32;;;1.90;;
13443;SDS011;6794;59.218;18.218;2023-04-03T05:34:46;1.93;;;1.30;;
13443;SDS011;6794;59.218;18.218;2023-04-03T05:37:12;3.83;;;1.23;;
13443;SDS011;6794;59.218;18.218;2023-04-03T05:39:38;6.47;;;1.77;;
13443;SDS011;6794;59.218;18.218;2023-04-03T05:42:05;6.80;;;1.83;;
13443;SDS011;6794;59.218;18.218;2023-04-03T05:44:31;7.03;;;1.97;;
13443;SDS011;6794;59.218;18.218;2023-04-03T05:46:58;3.53;;;1.40;;
13443;SDS011;6794;59.218;18.218;2023-04-03T05:49:24;2.87;;;1.50;;
13443;SDS011;6794;59.218;18.218;2023-04-03T05:51:50;4.10;;;1.67;;
13443;SDS011;6794;59.218;18.218;2023-04-03T05:54:20;3.60;;;1.80;;
13443;SDS011;6794;59.218;18.218;2023-04-03T05:56:48;5.77;;;1.90;;
13443;SDS011;6794;59.218;18.218;2023-04-03T05:59:14;3.53;;;1.87;;
13443;SDS011;6794;59.218;18.218;2023-04-03T06:01:40;2.70;;;1.60;;
13443;SDS011;6794;59.218;18.218;2023-04-03T06:04:06;4.10;;;2.00;;
13443;SDS011;6794;59.218;18.218;2023-04-03T06:06:45;7.23;;;2.23;;
13443;SDS011;6794;59.218;18.218;2023-04-03T06:09:12;6.50;;;2.50;;
13443;SDS011;6794;59.218;18.218;2023-04-03T06:11:38;6.77;;;2.00;;
13443;SDS011;6794;59.218;18.218;2023-04-03T06:14:04;4.57;;;2.00;;
13443;SDS011;6794;59.218;18.218;2023-04-03T06:16:30;3.70;;;1.90;;
13443;SDS011;6794;59.218;18.218;2023-04-03T06:18:57;4.33;;;2.40;;
13443;SDS011;6794;59.218;18.218;2023-04-03T06:21:23;5.00;;;2.63;;
13443;SDS011;6794;59.218;18.218;2023-04-03T06:23:49;3.77;;;1.63;;
13443;SDS011;6794;59.218;18.218;2023-04-03T06:26:16;3.87;;;1.60;;
13443;SDS011;6794;59.218;18.218;2023-04-03T06:28:42;3.90;;;2.97;;
13443;SDS011;6794;59.218;18.218;2023-04-03T06:31:08;4.37;;;3.93;;
13443;SDS011;6794;59.218;18.218;2023-04-03T06:33:34;5.83;;;4.67;;
13443;SDS011;6794;59.218;18.218;2023-04-03T06:36:03;5.93;;;5.47;;
13443;SDS011;6794;59.218;18.218;2023-04-03T06:38:29;5.43;;;4.60;;
13443;SDS011;6794;59.218;18.218;2023-04-03T06:40:55;4.28;;;3.70;;
13443;SDS011;6794;59.218;18.218;2023-04-03T06:43:21;5.65;;;3.70;;
13443;SDS011;6794;59.218;18.218;2023-04-03T06:45:48;6.27;;;2.60;;
13443;SDS011;6794;59.218;18.218;2023-04-03T06:48:14;9.83;;;2.80;;
13443;SDS011;6794;59.218;18.218;2023-04-03T06:50:40;4.03;;;2.20;;
13443;SDS011;6794;59.218;18.218;2023-04-03T06:53:06;5.47;;;1.97;;
13443;SDS011;6794;59.218;18.218;2023-04-03T06:55:33;5.57;;;2.73;;
13443;SDS011;6794;59.218;18.218;2023-04-03T06:57:59;3.87;;;1.40;;
13443;SDS011;6794;59.218;18.218;2023-04-03T07:00:25;2.30;;;1.17;;
13443;SDS011;6794;59.218;18.218;2023-04-03T07:02:51;5.27;;;1.20;;
13443;SDS011;6794;59.218;18.218;2023-04-03T07:05:17;3.37;;;1.13;;
13443;SDS011;6794;59.218;18.218;2023-04-03T07:07:43;3.47;;;1.30;;
13443;SDS011;6794;59.218;18.218;2023-04-03T07:10:10;2.67;;;1.17;;
13443;SDS011;6794;59.218;18.218;2023-04-03T07:12:36;4.20;;;2.00;;
13443;SDS011;6794;59.218;18.218;2023-04-03T07:15:03;2.43;;;1.10;;
13443;SDS011;6794;59.218;18.218;2023-04-03T07:17:29;5.15;;;1.90;;
13443;SDS011;6794;59.218;18.218;2023-04-03T07:19:56;4.67;;;1.50;;
13443;SDS011;6794;59.218;18.218;2023-04-03T07:22:22;3.47;;;1.27;;
13443;SDS011;6794;59.218;18.218;2023-04-03T07:24:48;8.47;;;1.70;;
13443;SDS011;6794;59.218;18.218;2023-04-03T07:27:14;5.63;;;1.73;;
13443;SDS011;6794;59.218;18.218;2023-04-03T07:29:40;6.03;;;1.63;;
13443;SDS011;6794;59.218;18.218;2023-04-03T07:32:07;5.47;;;1.30;;
13443;SDS011;6794;59.218;18.218;2023-04-03T07:34:33;4.50;;;1.53;;
13443;SDS011;6794;59.218;18.218;2023-04-03T07:37:00;4.27;;;1.20;;
13443;SDS011;6794;59.218;18.218;2023-04-03T07:39:27;6.47;;;1.50;;
13443;SDS011;6794;59.218;18.218;2023-04-03T07:41:53;3.77;;;1.47;;
13443;SDS011;6794;59.218;18.218;2023-04-03T07:44:22;4.07;;;1.30;;
13443;SDS011;6794;59.218;18.218;2023-04-03T07:46:49;4.30;;;1.20;;
13443;SDS011;6794;59.218;18.218;2023-04-03T07:49:16;4.80;;;1.40;;
13443;SDS011;6794;59.218;18.218;2023-04-03T07:51:43;5.30;;;1.47;;
13443;SDS011;6794;59.218;18.218;2023-04-03T07:54:09;2.83;;;1.10;;
13443;SDS011;6794;59.218;18.218;2023-04-03T07:56:35;3.93;;;1.43;;
13443;SDS011;6794;59.218;18.218;2023-04-03T07:59:02;2.80;;;1.03;;
13443;SDS011;6794;59.218;18.218;2023-04-03T08:01:28;2.33;;;1.20;;
13443;SDS011;6794;59.218;18.218;2023-04-03T08:03:57;2.27;;;0.90;;
13443;SDS011;6794;59.218;18.218;2023-04-03T08:06:23;3.57;;;1.17;;
13443;SDS011;6794;59.218;18.218;2023-04-03T08:08:49;3.72;;;1.20;;
13443;SDS011;6794;59.218;18.218;2023-04-03T08:11:15;2.47;;;1.17;;
13443;SDS011;6794;59.218;18.218;2023-04-03T08:13:41;4.87;;;0.90;;
13443;SDS011;6794;59.218;18.218;2023-04-03T08:16:09;2.53;;;1.00;;
13443;SDS011;6794;59.218;18.218;2023-04-03T08:18:35;2.67;;;1.10;;
13443;SDS011;6794;59.218;18.218;2023-04-03T08:21:04;2.93;;;1.20;;
13443;SDS011;6794;59.218;18.218;2023-04-03T08:23:30;3.90;;;1.20;;
13443;SDS011;6794;59.218;18.218;2023-04-03T08:25:56;4.68;;;1.20;;
13443;SDS011;6794;59.218;18.218;2023-04-03T08:28:22;2.20;;;1.27;;
13443;SDS011;6794;59.218;18.218;2023-04-03T08:30:48;3.90;;;1.40;;
13443;SDS011;6794;59.218;18.218;2023-04-03T08:33:15;2.53;;;1.50;;
13443;SDS011;6794;59.218;18.218;2023-04-03T08:35:41;2.17;;;1.27;;
13443;SDS011;6794;59.218;18.218;2023-04-03T08:38:08;7.83;;;1.33;;
13443;SDS011;6794;59.218;18.218;2023-04-03T08:40:35;3.70;;;1.27;;
13443;SDS011;6794;59.218;18.218;2023-04-03T08:50:36;2.60;;;1.00;;
13443;SDS011;6794;59.218;18.218;2023-04-03T08:53:05;2.73;;;1.10;;
13443;SDS011;6794;59.218;18.218;2023-04-03T08:55:37;3.47;;;0.93;;
13443;SDS011;6794;59.218;18.218;2023-04-03T08:58:06;4.57;;;1.20;;
13443;SDS011;6794;59.218;18.218;2023-04-03T09:00:56;3.75;;;1.50;;
13443;SDS011;6794;59.218;18.218;2023-04-03T09:03:19;3.43;;;1.17;;
13443;SDS011;6794;59.218;18.218;2023-04-03T09:10:44;1.63;;;1.10;;
13443;SDS011;6794;59.218;18.218;2023-04-03T09:16:12;3.93;;;1.00;;
13443;SDS011;6794;59.218;18.218;2023-04-03T09:18:42;4.87;;;1.20;;
13443;SDS011;6794;59.218;18.218;2023-04-03T09:21:17;2.90;;;1.07;;
13443;SDS011;6794;59.218;18.218;2023-04-03T09:23:52;2.93;;;0.93;;
13443;SDS011;6794;59.218;18.218;2023-04-03T09:26:23;4.70;;;1.40;;
13443;SDS011;6794;59.218;18.218;2023-04-03T09:28:51;2.43;;;1.00;;
13443;SDS011;6794;59.218;18.218;2023-04-03T09:31:20;3.17;;;1.10;;
13443;SDS011;6794;59.218;18.218;2023-04-03T09:33:51;3.22;;;1.30;;
13443;SDS011;6794;59.218;18.218;2023-04-03T09:39:25;1.10;;;0.97;;
13443;SDS011;6794;59.218;18.218;2023-04-03T09:44:22;3.27;;;1.00;;
13443;SDS011;6794;59.218;18.218;2023-04-03T09:46:48;1.23;;;0.80;;
13443;SDS011;6794;59.218;18.218;2023-04-03T09:49:15;2.40;;;1.08;;
13443;SDS011;6794;59.218;18.218;2023-04-03T09:51:41;1.67;;;0.83;;
13443;SDS011;6794;59.218;18.218;2023-04-03T09:56:52;3.93;;;1.43;;
13443;SDS011;6794;59.218;18.218;2023-04-03T09:59:20;3.23;;;1.20;;
13443;SDS011;6794;59.218;18.218;2023-04-03T10:02:00;4.90;;;1.20;;
13443;SDS011;6794;59.218;18.218;2023-04-03T10:04:36;2.27;;;1.27;;
13443;SDS011;6794;59.218;18.218;2023-04-03T10:07:02;4.35;;;1.42;;
13443;SDS011;6794;59.218;18.218;2023-04-03T10:09:29;3.10;;;1.33;;
13443;SDS011;6794;59.218;18.218;2023-04-03T10:14:26;1.90;;;1.00;;
13443;SDS011;6794;59.218;18.218;2023-04-03T10:16:54;3.37;;;1.00;;
13443;SDS011;6794;59.218;18.218;2023-04-03T10:24:48;2.10;;;0.97;;
13443;SDS011;6794;59.218;18.218;2023-04-03T10:30:01;1.63;;;1.00;;
13443;SDS011;6794;59.218;18.218;2023-04-03T10:32:48;2.40;;;1.17;;
13443;SDS011;6794;59.218;18.218;2023-04-03T10:38:08;3.25;;;1.17;;
13443;SDS011;6794;59.218;18.218;2023-04-03T10:43:18;4.40;;;0.90;;
13443;SDS011;6794;59.218;18.218;2023-04-03T10:45:52;3.10;;;1.10;;
13443;SDS011;6794;59.218;18.218;2023-04-03T10:48:33;3.37;;;1.03;;
13443;SDS011;6794;59.218;18.218;2023-04-03T10:58:52;2.77;;;0.90;;
13443;SDS011;6794;59.218;18.218;2023-04-03T11:01:23;4.13;;;0.90;;
13443;SDS011;6794;59.218;18.218;2023-04-03T11:03:54;2.00;;;1.30;;
13443;SDS011;6794;59.218;18.218;2023-04-03T11:06:23;1.20;;;0.87;;
13443;SDS011;6794;59.218;18.218;2023-04-03T11:11:24;1.53;;;0.80;;
13443;SDS011;6794;59.218;18.218;2023-04-03T11:13:53;2.30;;;1.23;;
13443;SDS011;6794;59.218;18.218;2023-04-03T11:16:22;1.37;;;0.80;;
13443;SDS011;6794;59.218;18.218;2023-04-03T11:18:58;4.13;;;1.30;;
13443;SDS011;6794;59.218;18.218;2023-04-03T11:21:36;2.53;;;1.10;;
13443;SDS011;6794;59.218;18.218;2023-04-03T11:24:04;2.07;;;0.93;;
13443;SDS011;6794;59.218;18.218;2023-04-03T11:26:35;3.43;;;1.00;;
13443;SDS011;6794;59.218;18.218;2023-04-03T11:29:04;1.93;;;0.80;;
13443;SDS011;6794;59.218;18.218;2023-04-03T11:31:41;3.00;;;1.23;;
13443;SDS011;6794;59.218;18.218;2023-04-03T11:36:55;1.17;;;0.70;;
13443;SDS011;6794;59.218;18.218;2023-04-03T11:39:26;0.80;;;0.67;;
13443;SDS011;6794;59.218;18.218;2023-04-03T11:41:52;1.07;;;0.60;;
13443;SDS011;6794;59.218;18.218;2023-04-03T11:46:56;2.47;;;1.00;;
13443;SDS011;6794;59.218;18.218;2023-04-03T11:52:09;1.57;;;0.87;;
13443;SDS011;6794;59.218;18.218;2023-04-03T11:57:22;5.10;;;1.10;;
13443;SDS011;6794;59.218;18.218;2023-04-03T11:59:47;0.87;;;0.60;;
13443;SDS011;6794;59.218;18.218;2023-04-03T12:02:35;1.17;;;0.90;;
13443;SDS011;6794;59.218;18.218;2023-04-03T12:08:15;0.70;;;0.70;;
13443;SDS011;6794;59.218;18.218;2023-04-03T12:10:42;3.20;;;0.87;;
13443;SDS011;6794;59.218;18.218;2023-04-03T12:13:15;3.00;;;1.13;;
13443;SDS011;6794;59.218;18.218;2023-04-03T12:15:47;2.03;;;0.73;;
13443;SDS011;6794;59.218;18.218;2023-04-03T12:18:57;1.10;;;0.60;;
13443;SDS011;6794;59.218;18.218;2023-04-03T12:21:04;1.03;;;0.90;;
13443;SDS011;6794;59.218;18.218;2023-04-03T12:23:33;0.63;;;0.60;;
13443;SDS011;6794;59.218;18.218;2023-04-03T12:26:03;0.57;;;0.50;;
13443;SDS011;6794;59.218;18.218;2023-04-03T12:28:34;2.27;;;0.80;;
13443;SDS011;6794;59.218;18.218;2023-04-03T12:31:02;2.27;;;0.80;;
13443;SDS011;6794;59.218;18.218;2023-04-03T12:33:36;0.73;;;0.70;;
13443;SDS011;6794;59.218;18.218;2023-04-03T12:43:28;2.50;;;1.10;;
13443;SDS011;6794;59.218;18.218;2023-04-03T12:54:02;0.60;;;0.60;;
13443;SDS011;6794;59.218;18.218;2023-04-03T12:56:30;1.60;;;0.83;;
13443;SDS011;6794;59.218;18.218;2023-04-03T12:59:13;1.93;;;1.07;;
13443;SDS011;6794;59.218;18.218;2023-04-03T13:01:39;0.73;;;0.60;;
13443;SDS011;6794;59.218;18.218;2023-04-03T13:04:10;2.27;;;0.67;;
13443;SDS011;6794;59.218;18.218;2023-04-03T13:06:41;0.73;;;0.67;;
13443;SDS011;6794;59.218;18.218;2023-04-03T13:09:17;1.43;;;0.60;;
13443;SDS011;6794;59.218;18.218;2023-04-03T13:11:46;0.83;;;0.67;;
13443;SDS011;6794;59.218;18.218;2023-04-03T13:14:16;1.67;;;0.68;;
13443;SDS011;6794;59.218;18.218;2023-04-03T13:16:52;1.90;;;0.53;;
13443;SDS011;6794;59.218;18.218;2023-04-03T13:19:19;0.83;;;0.63;;
13443;SDS011;6794;59.218;18.218;2023-04-03T13:21:45;2.10;;;0.80;;
13443;SDS011;6794;59.218;18.218;2023-04-03T13:24:11;2.70;;;0.80;;
13443;SDS011;6794;59.218;18.218;2023-04-03T13:26:38;1.30;;;0.50;;
13443;SDS011;6794;59.218;18.218;2023-04-03T13:29:05;0.90;;;0.47;;
13443;SDS011;6794;59.218;18.218;2023-04-03T13:31:36;1.93;;;0.60;;
13443;SDS011;6794;59.218;18.218;2023-04-03T13:34:05;1.13;;;0.77;;
13443;SDS011;6794;59.218;18.218;2023-04-03T13:36:33;0.87;;;0.70;;
13443;SDS011;6794;59.218;18.218;2023-04-03T13:39:02;1.87;;;0.80;;
13443;SDS011;6794;59.218;18.218;2023-04-03T13:41:30;1.93;;;0.70;;
13443;SDS011;6794;59.218;18.218;2023-04-03T13:43:56;2.87;;;0.70;;
13443;SDS011;6794;59.218;18.218;2023-04-03T13:46:24;1.13;;;0.67;;
13443;SDS011;6794;59.218;18.218;2023-04-03T13:48:52;2.72;;;0.60;;
13443;SDS011;6794;59.218;18.218;2023-04-03T13:53:50;1.77;;;0.70;;
13443;SDS011;6794;59.218;18.218;2023-04-03T13:56:35;2.83;;;0.80;;
13443;SDS011;6794;59.218;18.218;2023-04-03T14:04:13;2.30;;;0.77;;
13443;SDS011;6794;59.218;18.218;2023-04-03T14:06:39;2.77;;;0.60;;
13443;SDS011;6794;59.218;18.218;2023-04-03T14:09:05;0.73;;;0.53;;
13443;SDS011;6794;59.218;18.218;2023-04-03T14:11:31;1.07;;;0.70;;
13443;SDS011;6794;59.218;18.218;2023-04-03T14:14:00;0.90;;;0.70;;
13443;SDS011;6794;59.218;18.218;2023-04-03T14:16:29;2.33;;;0.47;;
13443;SDS011;6794;59.218;18.218;2023-04-03T14:18:56;2.87;;;1.17;;
13443;SDS011;6794;59.218;18.218;2023-04-03T14:21:22;2.42;;;0.75;;
13443;SDS011;6794;59.218;18.218;2023-04-03T14:23:48;1.17;;;0.60;;
13443;SDS011;6794;59.218;18.218;2023-04-03T14:26:16;1.67;;;0.60;;
13443;SDS011;6794;59.218;18.218;2023-04-03T14:28:47;3.40;;;0.80;;
13443;SDS011;6794;59.218;18.218;2023-04-03T14:31:14;2.63;;;0.53;;
13443;SDS011;6794;59.218;18.218;2023-04-03T14:33:41;1.03;;;0.70;;
13443;SDS011;6794;59.218;18.218;2023-04-03T14:38:42;0.63;;;0.50;;
13443;SDS011;6794;59.218;18.218;2023-04-03T14:41:10;2.57;;;0.83;;
13443;SDS011;6794;59.218;18.218;2023-04-03T14:43:37;2.97;;;1.40;;
13443;SDS011;6794;59.218;18.218;2023-04-03T14:46:03;1.83;;;0.70;;
13443;SDS011;6794;59.218;18.218;2023-04-03T14:48:30;1.83;;;0.50;;
13443;SDS011;6794;59.218;18.218;2023-04-03T14:50:56;1.33;;;0.60;;
13443;SDS011;6794;59.218;18.218;2023-04-03T14:53:22;1.57;;;0.80;;
13443;SDS011;6794;59.218;18.218;2023-04-03T14:55:51;0.70;;;0.70;;
13443;SDS011;6794;59.218;18.218;2023-04-03T14:58:18;2.10;;;0.80;;
13443;SDS011;6794;59.218;18.218;2023-04-03T15:00:44;1.63;;;0.80;;
13443;SDS011;6794;59.218;18.218;2023-04-03T15:03:14;1.60;;;0.70;;
13443;SDS011;6794;59.218;18.218;2023-04-03T15:05:41;1.53;;;0.87;;
13443;SDS011;6794;59.218;18.218;2023-04-03T15:08:20;2.10;;;0.90;;
13443;SDS011;6794;59.218;18.218;2023-04-03T15:10:47;1.63;;;0.80;;
13443;SDS011;6794;59.218;18.218;2023-04-03T15:13:13;2.70;;;0.80;;
13443;SDS011;6794;59.218;18.218;2023-04-03T15:15:40;3.33;;;1.27;;
13443;SDS011;6794;59.218;18.218;2023-04-03T15:18:06;1.77;;;1.20;;
13443;SDS011;6794;59.218;18.218;2023-04-03T15:20:33;3.03;;;0.97;;
13443;SDS011;6794;59.218;18.218;2023-04-03T15:22:59;2.30;;;1.20;;
13443;SDS011;6794;59.218;18.218;2023-04-03T15:25:26;5.67;;;2.30;;
13443;SDS011;6794;59.218;18.218;2023-04-03T15:27:55;2.10;;;1.23;;
13443;SDS011;6794;59.218;18.218;2023-04-03T15:30:22;2.57;;;1.43;;
13443;SDS011;6794;59.218;18.218;2023-04-03T15:32:48;2.40;;;1.23;;
13443;SDS011;6794;59.218;18.218;2023-04-03T15:35:14;1.57;;;1.10;;
13443;SDS011;6794;59.218;18.218;2023-04-03T15:37:40;1.50;;;0.80;;
13443;SDS011;6794;59.218;18.218;2023-04-03T15:40:06;3.43;;;2.13;;
13443;SDS011;6794;59.218;18.218;2023-04-03T15:42:33;1.60;;;1.20;;
13443;SDS011;6794;59.218;18.218;2023-04-03T15:44:59;3.37;;;1.20;;
13443;SDS011;6794;59.218;18.218;2023-04-03T15:47:25;2.53;;;1.50;;
13443;SDS011;6794;59.218;18.218;2023-04-03T15:49:52;4.40;;;1.60;;
13443;SDS011;6794;59.218;18.218;2023-04-03T15:52:19;2.07;;;0.80;;
13443;SDS011;6794;59.218;18.218;2023-04-03T15:54:45;3.53;;;1.03;;
13443;SDS011;6794;59.218;18.218;2023-04-03T15:57:11;2.57;;;1.00;;
13443;SDS011;6794;59.218;18.218;2023-04-03T15:59:37;4.80;;;1.35;;
13443;SDS011;6794;59.218;18.218;2023-04-03T16:02:04;1.00;;;0.90;;
13443;SDS011;6794;59.218;18.218;2023-04-03T16:04:31;1.73;;;0.60;;
13443;SDS011;6794;59.218;18.218;2023-04-03T16:07:00;2.73;;;1.13;;
13443;SDS011;6794;59.218;18.218;2023-04-03T16:09:26;3.57;;;1.30;;
13443;SDS011;6794;59.218;18.218;2023-04-03T16:11:52;4.57;;;1.63;;
13443;SDS011;6794;59.218;18.218;2023-04-03T16:14:18;2.50;;;1.00;;
13443;SDS011;6794;59.218;18.218;2023-04-03T16:16:44;1.97;;;0.77;;
13443;SDS011;6794;59.218;18.218;2023-04-03T16:19:10;3.50;;;1.23;;
13443;SDS011;6794;59.218;18.218;2023-04-03T16:21:37;6.23;;;0.80;;
13443;SDS011;6794;59.218;18.218;2023-04-03T16:24:03;2.33;;;1.13;;
13443;SDS011;6794;59.218;18.218;2023-04-03T16:26:30;1.03;;;0.90;;
13443;SDS011;6794;59.218;18.218;2023-04-03T16:28:56;1.30;;;1.10;;